テヘラン の空港の天気 - METARとTAF

メヘラーバード国際空港(テヘラン) ( OIII / THR ) - イラン テヘラン
飛行場実況気象(Metar)
観測時間10/22 14:30 IRST (10/22 11:00 UTC)
風向・風速南西 3m/s
視程9000m
天気現象
なし
気温22℃
湿度20%
気圧1022hPa
METAROIII 221100Z 23006KT 9000 NSC 22/M02 Q1022 A3020 NOSIG
過去の天気等 Google飛行場航空写真 Wunderground天気予報

過去48時間のMETAR

飛行場予報(TAF)
発表時間: 10/22 09:20 IRST (10/22 05:50 UTC)
予報対象時間: 22日9時 IRST ~ 23日15時 IRST
風向・風速南 3m/s
視程7000m
なし
TAF OIII 220550Z 2206/2312 19006KT 7000 NSC